createdAt,value
2019-03-06T00:01:01.075Z,99.90
2019-03-06T00:03:33.213Z,99.90
2019-03-06T00:06:04.515Z,99.90
2019-03-06T00:08:36.757Z,99.90
2019-03-06T00:11:09.367Z,99.90
2019-03-06T00:13:42.138Z,99.90
2019-03-06T00:16:13.254Z,99.90
2019-03-06T00:18:44.471Z,99.90
2019-03-06T00:21:16.289Z,99.90
2019-03-06T00:23:47.729Z,99.90
2019-03-06T00:26:20.619Z,99.90
2019-03-06T00:28:54.240Z,99.90
2019-03-06T00:31:26.587Z,99.90
2019-03-06T00:33:58.484Z,99.90
2019-03-06T00:36:31.916Z,99.90
2019-03-06T00:39:05.626Z,99.90
2019-03-06T00:41:43.059Z,99.90
2019-03-06T00:44:16.494Z,99.90
2019-03-06T00:46:47.626Z,99.90
2019-03-06T00:49:21.243Z,99.90
2019-03-06T00:51:53.826Z,99.90
2019-03-06T00:54:25.391Z,99.90
2019-03-06T00:56:58.111Z,99.90
2019-03-06T00:59:29.643Z,99.90
2019-03-06T01:02:02.359Z,99.90
2019-03-06T01:04:34.251Z,99.90
2019-03-06T01:07:06.028Z,99.90
2019-03-06T01:09:37.225Z,99.90
2019-03-06T01:12:12.002Z,99.90
2019-03-06T01:14:47.669Z,99.90
2019-03-06T01:17:18.431Z,99.90
2019-03-06T01:19:51.837Z,99.90
2019-03-06T01:22:23.006Z,99.90
2019-03-06T01:24:56.184Z,99.90
2019-03-06T01:27:31.831Z,99.90
2019-03-06T01:30:03.909Z,99.90
2019-03-06T01:32:36.329Z,99.90
2019-03-06T01:35:39.745Z,99.90
2019-03-06T01:38:34.576Z,99.90
2019-03-06T01:41:28.817Z,99.90
2019-03-06T01:44:22.081Z,99.90
2019-03-06T01:47:02.248Z,99.90
2019-03-06T01:49:34.439Z,99.90
2019-03-06T01:52:07.911Z,99.90
2019-03-06T01:54:40.599Z,99.90
2019-03-06T01:57:13.606Z,99.90
2019-03-06T01:59:45.771Z,99.90
2019-03-06T02:02:16.944Z,99.90
2019-03-06T02:04:47.682Z,99.90
2019-03-06T02:07:19.297Z,99.90
2019-03-06T02:09:50.407Z,99.90
2019-03-06T02:12:22.080Z,99.90
2019-03-06T02:14:53.696Z,99.90
2019-03-06T02:17:26.630Z,99.90
2019-03-06T02:20:01.029Z,99.90
2019-03-06T02:22:31.982Z,99.90
2019-03-06T02:25:03.828Z,99.90
2019-03-06T02:27:36.283Z,99.90
2019-03-06T02:30:10.803Z,99.90
2019-03-06T02:32:41.699Z,99.90
2019-03-06T02:35:13.821Z,99.90
2019-03-06T02:37:44.731Z,99.90
2019-03-06T02:40:17.246Z,99.90
2019-03-06T02:42:49.638Z,99.90
2019-03-06T02:45:22.490Z,99.90
2019-03-06T02:47:53.438Z,99.90
2019-03-06T02:50:26.287Z,99.90
2019-03-06T02:52:57.400Z,99.90
2019-03-06T02:55:29.235Z,99.90
2019-03-06T02:58:06.730Z,99.90
2019-03-06T03:00:48.802Z,99.90
2019-03-06T03:03:56.710Z,99.90
2019-03-06T03:06:33.265Z,99.90
2019-03-06T03:09:13.736Z,99.90
2019-03-06T03:11:45.590Z,99.90
2019-03-06T03:14:18.971Z,99.90
2019-03-06T03:16:50.346Z,99.90
2019-03-06T03:19:22.830Z,99.90
2019-03-06T03:21:59.042Z,99.90
2019-03-06T03:24:31.294Z,99.90
2019-03-06T03:27:03.234Z,99.90
2019-03-06T03:29:34.212Z,99.90
2019-03-06T03:32:09.443Z,99.90
2019-03-06T03:34:43.384Z,99.90
2019-03-06T03:37:14.760Z,99.90
2019-03-06T03:39:45.739Z,99.90
2019-03-06T03:42:19.957Z,99.90
2019-03-06T03:44:53.217Z,99.90
2019-03-06T03:47:25.289Z,99.90
2019-03-06T03:49:56.178Z,99.90
2019-03-06T03:52:27.037Z,99.90
2019-03-06T03:54:59.769Z,99.90
2019-03-06T03:57:32.129Z,99.90
2019-03-06T04:00:22.367Z,99.90
2019-03-06T04:02:54.277Z,99.90
2019-03-06T04:05:25.438Z,99.90
2019-03-06T04:07:57.007Z,99.90
2019-03-06T04:10:28.989Z,99.90
2019-03-06T04:13:01.599Z,99.90
2019-03-06T04:15:34.719Z,99.90
2019-03-06T04:18:07.879Z,99.90
2019-03-06T04:20:39.161Z,99.90
2019-03-06T04:23:12.486Z,99.90
2019-03-06T04:25:44.198Z,99.90
2019-03-06T04:28:18.124Z,99.90
2019-03-06T04:30:52.362Z,99.90
2019-03-06T04:33:27.993Z,99.90
2019-03-06T04:36:01.101Z,99.90
2019-03-06T04:38:34.191Z,99.90
2019-03-06T04:41:05.834Z,99.90
2019-03-06T04:43:37.567Z,99.90
2019-03-06T04:46:10.152Z,99.90
2019-03-06T04:48:44.010Z,99.90
2019-03-06T04:51:16.989Z,99.90
2019-03-06T04:53:48.775Z,99.90
2019-03-06T04:56:21.816Z,99.90
2019-03-06T04:58:54.640Z,99.90
2019-03-06T05:01:28.969Z,99.90
2019-03-06T05:04:01.428Z,99.90
2019-03-06T05:06:34.186Z,99.90
2019-03-06T05:09:07.534Z,99.90
2019-03-06T05:11:39.195Z,99.90
2019-03-06T05:14:11.946Z,99.90
2019-03-06T05:17:04.109Z,99.90
2019-03-06T05:19:35.599Z,99.90
2019-03-06T05:22:08.123Z,99.90
2019-03-06T05:24:39.539Z,99.90
2019-03-06T05:27:11.114Z,99.90
2019-03-06T05:29:43.305Z,99.90
2019-03-06T05:32:38.039Z,99.90
2019-03-06T05:35:57.295Z,99.90
2019-03-06T05:38:41.482Z,99.90
2019-03-06T05:41:13.828Z,99.90
2019-03-06T05:43:45.753Z,99.90
2019-03-06T05:46:17.657Z,99.90
2019-03-06T05:48:49.363Z,99.90
2019-03-06T05:51:21.461Z,99.90
2019-03-06T05:53:52.890Z,99.90
2019-03-06T05:56:25.404Z,99.90
2019-03-06T05:58:57.638Z,99.90
2019-03-06T06:01:29.019Z,99.90
2019-03-06T06:04:01.056Z,99.90
2019-03-06T06:06:33.425Z,99.90
2019-03-06T06:09:06.406Z,99.90
2019-03-06T06:11:37.826Z,99.90
2019-03-06T06:14:09.246Z,99.90
2019-03-06T06:16:40.977Z,99.90
2019-03-06T06:19:13.272Z,99.90
2019-03-06T06:22:02.997Z,99.90
2019-03-06T06:24:33.455Z,99.90
2019-03-06T06:27:04.570Z,99.90
2019-03-06T06:29:36.594Z,99.90
2019-03-06T06:32:07.747Z,99.90
2019-03-06T06:34:39.634Z,99.90
2019-03-06T06:37:11.758Z,99.90
2019-03-06T06:39:43.836Z,99.90
2019-03-06T06:42:16.271Z,99.90
2019-03-06T06:44:47.475Z,99.90
2019-03-06T06:47:18.034Z,99.90
2019-03-06T06:49:50.763Z,99.90
2019-03-06T06:53:06.352Z,99.90
2019-03-06T06:55:47.947Z,99.90
2019-03-06T06:58:45.503Z,99.90
2019-03-06T07:02:27.537Z,99.90
2019-03-06T07:05:15.453Z,99.90
2019-03-06T07:07:57.798Z,99.90
2019-03-06T07:10:56.401Z,99.90
2019-03-06T07:13:38.708Z,99.90
2019-03-06T07:16:21.630Z,99.90
2019-03-06T07:19:14.623Z,99.90
2019-03-06T07:22:02.227Z,99.90
2019-03-06T07:24:46.030Z,99.90
2019-03-06T07:27:47.111Z,99.90
2019-03-06T07:30:39.072Z,99.90
2019-03-06T07:33:20.099Z,99.90
2019-03-06T07:36:22.209Z,99.90
2019-03-06T07:38:59.888Z,99.90
2019-03-06T07:41:48.710Z,99.90
2019-03-06T07:44:50.704Z,99.90
2019-03-06T07:47:41.915Z,99.90
2019-03-06T07:50:47.298Z,99.90
2019-03-06T07:54:13.991Z,99.90
2019-03-06T07:56:56.799Z,99.90
2019-03-06T07:59:30.345Z,99.90
2019-03-06T08:02:06.770Z,99.90
2019-03-06T08:04:38.838Z,99.90
2019-03-06T08:07:12.995Z,99.90
2019-03-06T08:09:44.916Z,99.90
2019-03-06T08:12:51.337Z,99.90
2019-03-06T08:15:41.756Z,99.90
2019-03-06T08:18:42.818Z,99.90
2019-03-06T08:21:39.483Z,99.90
2019-03-06T08:24:41.274Z,99.90
2019-03-06T08:27:12.507Z,99.90
2019-03-06T08:29:43.983Z,99.90
2019-03-06T08:32:25.306Z,99.90
2019-03-06T08:34:57.558Z,99.90
2019-03-06T08:37:28.923Z,99.90
2019-03-06T08:40:01.468Z,99.90
2019-03-06T08:42:33.193Z,99.90
2019-03-06T08:45:05.294Z,99.90
2019-03-06T08:47:54.992Z,99.90
2019-03-06T08:50:48.588Z,99.90
2019-03-06T08:53:38.688Z,99.90
2019-03-06T08:56:24.157Z,99.90
2019-03-06T08:59:14.754Z,99.90
2019-03-06T09:02:15.298Z,99.90
2019-03-06T09:05:00.498Z,99.90
2019-03-06T09:08:03.346Z,99.90
2019-03-06T09:11:02.811Z,99.90
2019-03-06T09:13:43.873Z,99.90
2019-03-06T09:16:28.664Z,99.90
2019-03-06T09:19:22.141Z,99.90
2019-03-06T09:22:16.112Z,99.90
2019-03-06T09:24:56.361Z,99.90
2019-03-06T09:27:48.539Z,99.90
2019-03-06T09:30:48.236Z,99.90
2019-03-06T09:33:40.167Z,99.90
2019-03-06T09:36:23.375Z,99.90
2019-03-06T09:39:06.417Z,99.90
2019-03-06T09:41:54.030Z,99.90
2019-03-06T09:44:48.230Z,99.90
2019-03-06T09:47:31.473Z,99.90
2019-03-06T09:50:23.822Z,99.90
2019-03-06T09:53:34.409Z,99.90
2019-03-06T09:56:27.845Z,99.90
2019-03-06T09:59:17.582Z,99.90
2019-03-06T10:02:08.417Z,99.90
2019-03-06T10:04:50.384Z,99.90
2019-03-06T10:07:37.867Z,99.90
2019-03-06T10:10:32.342Z,99.90
2019-03-06T10:13:42.086Z,99.90
2019-03-06T10:16:28.152Z,99.90
2019-03-06T10:19:24.036Z,99.90
2019-03-06T10:21:55.290Z,99.90
2019-03-06T10:24:28.501Z,99.90
2019-03-06T10:27:00.412Z,99.90
2019-03-06T10:29:33.098Z,99.90
2019-03-06T10:32:05.650Z,99.90
2019-03-06T10:34:38.348Z,99.90
2019-03-06T10:37:09.810Z,99.90
2019-03-06T10:40:39.629Z,99.90
2019-03-06T10:43:10.866Z,99.90
2019-03-06T10:45:42.160Z,99.90
2019-03-06T10:48:12.999Z,99.90
2019-03-06T10:50:44.608Z,99.90
2019-03-06T10:53:17.623Z,99.90
2019-03-06T10:55:48.879Z,99.90
2019-03-06T10:58:21.643Z,99.90
2019-03-06T11:00:55.597Z,99.90
2019-03-06T11:03:37.698Z,99.90
2019-03-06T11:06:14.231Z,99.90
2019-03-06T11:08:45.406Z,99.90
2019-03-06T11:11:17.794Z,99.90
2019-03-06T11:13:49.040Z,99.90
2019-03-06T11:16:21.409Z,99.90
2019-03-06T11:18:53.743Z,99.90
2019-03-06T11:21:24.927Z,99.90
2019-03-06T11:23:58.687Z,99.90
2019-03-06T11:26:34.267Z,99.90
2019-03-06T11:29:10.121Z,99.90
2019-03-06T11:31:44.090Z,99.90
2019-03-06T11:34:15.315Z,99.90
2019-03-06T11:36:47.961Z,99.90
2019-03-06T11:39:19.869Z,99.90
2019-03-06T11:41:52.170Z,99.90
2019-03-06T11:44:25.084Z,99.90
2019-03-06T11:46:58.394Z,99.90
2019-03-06T11:49:33.008Z,99.90
2019-03-06T11:52:05.155Z,99.90
2019-03-06T11:54:36.876Z,99.90
2019-03-06T11:57:09.090Z,99.90
2019-03-06T11:59:40.483Z,99.90
2019-03-06T12:02:13.835Z,99.90
2019-03-06T12:04:50.091Z,99.90
2019-03-06T12:07:23.476Z,99.90
2019-03-06T12:09:55.711Z,99.90
2019-03-06T12:12:29.235Z,99.90
2019-03-06T12:15:02.167Z,99.90
2019-03-06T12:17:34.660Z,99.90
2019-03-06T12:20:08.449Z,99.90
2019-03-06T12:22:41.102Z,99.90
2019-03-06T12:25:12.918Z,99.90
2019-03-06T12:27:46.609Z,99.90
2019-03-06T12:30:19.084Z,99.90
2019-03-06T12:33:09.171Z,99.90
2019-03-06T12:35:40.733Z,99.90
2019-03-06T12:38:12.493Z,99.90
2019-03-06T12:40:43.302Z,99.90
2019-03-06T12:43:15.745Z,99.90
2019-03-06T12:46:26.216Z,99.90
2019-03-06T12:49:15.211Z,99.90
2019-03-06T12:51:54.396Z,99.90
2019-03-06T12:54:21.024Z,99.90
2019-03-06T12:56:52.105Z,99.90
2019-03-06T12:59:23.898Z,99.90
2019-03-06T13:01:55.955Z,99.90
2019-03-06T13:04:26.730Z,99.90
2019-03-06T13:06:58.311Z,99.90
2019-03-06T13:09:32.991Z,99.90
2019-03-06T13:12:05.659Z,98.90
2019-03-06T13:14:39.145Z,97.90
2019-03-06T13:17:11.822Z,98.80
2019-03-06T13:19:46.482Z,96.70
2019-03-06T13:22:19.709Z,98.40
2019-03-06T13:24:53.411Z,98.80
2019-03-06T13:27:28.714Z,97.90
2019-03-06T13:30:02.099Z,98.70
2019-03-06T13:32:56.766Z,98.50
2019-03-06T13:35:27.702Z,98.60
2019-03-06T13:38:02.151Z,99.20
2019-03-06T13:40:37.589Z,98.70
2019-03-06T13:43:10.209Z,98.80
2019-03-06T13:45:42.986Z,98.50
2019-03-06T13:48:15.696Z,97.40
2019-03-06T13:50:46.617Z,97.90
2019-03-06T13:53:20.604Z,97.70
2019-03-06T13:55:55.363Z,97.30
2019-03-06T13:58:26.384Z,97.60
2019-03-06T14:00:57.408Z,97.40
2019-03-06T14:03:29.059Z,96.40
2019-03-06T14:06:01.887Z,96.50
2019-03-06T14:08:36.591Z,96.20
2019-03-06T14:11:09.857Z,96.20
2019-03-06T14:13:41.950Z,95.90
2019-03-06T14:16:13.314Z,94.80
2019-03-06T14:18:45.191Z,95.40
2019-03-06T14:21:16.609Z,94.60
2019-03-06T14:23:48.026Z,94.90
2019-03-06T14:26:19.107Z,93.50
2019-03-06T14:28:49.729Z,93.70
2019-03-06T14:31:23.154Z,94.90
2019-03-06T14:33:53.355Z,93.70
2019-03-06T14:36:23.946Z,93.40
2019-03-06T14:38:54.392Z,93.70
2019-03-06T14:41:24.751Z,93.10
2019-03-06T14:43:55.509Z,93.40
2019-03-06T14:46:26.939Z,94.50
2019-03-06T14:48:57.944Z,94.30
2019-03-06T14:51:28.820Z,93.90
2019-03-06T14:54:00.021Z,94.70
2019-03-06T14:56:30.595Z,94.60
2019-03-06T14:59:01.278Z,93.70
2019-03-06T15:01:31.928Z,94.30
2019-03-06T15:04:02.332Z,94.80
2019-03-06T15:06:33.498Z,94.30
2019-03-06T15:09:05.841Z,95.00
2019-03-06T15:11:37.633Z,95.40
2019-03-06T15:14:09.199Z,95.40
2019-03-06T15:16:39.995Z,95.20
2019-03-06T15:19:11.135Z,95.50
2019-03-06T15:21:42.076Z,95.60
2019-03-06T15:24:13.200Z,96.00
2019-03-06T15:26:44.764Z,95.20
2019-03-06T15:29:15.374Z,95.50
2019-03-06T15:31:46.071Z,95.60
2019-03-06T15:34:16.827Z,96.20
2019-03-06T15:36:47.561Z,95.60
2019-03-06T15:39:29.926Z,95.90
2019-03-06T15:42:02.828Z,96.40
2019-03-06T15:44:34.119Z,96.40
2019-03-06T15:47:05.210Z,96.40
2019-03-06T15:49:36.817Z,96.60
2019-03-06T15:52:10.862Z,97.00
2019-03-06T15:54:43.041Z,97.80
2019-03-06T15:57:17.548Z,98.30
2019-03-06T15:59:49.444Z,98.80
2019-03-06T16:02:21.041Z,99.10
2019-03-06T16:04:52.917Z,99.50
2019-03-06T16:07:24.980Z,99.90
2019-03-06T16:09:56.155Z,99.90
2019-03-06T16:12:27.177Z,99.90
2019-03-06T16:14:59.197Z,99.90
2019-03-06T16:17:30.834Z,99.90
2019-03-06T16:20:02.768Z,99.90
2019-03-06T16:22:33.844Z,99.90
2019-03-06T16:25:08.205Z,99.90
2019-03-06T16:27:40.932Z,99.90
2019-03-06T16:30:15.786Z,99.90
2019-03-06T16:32:48.619Z,99.90
2019-03-06T16:35:20.789Z,99.90
2019-03-06T16:37:53.127Z,99.90
2019-03-06T16:40:25.933Z,99.90
2019-03-06T16:43:01.549Z,99.90
2019-03-06T16:45:32.620Z,99.90
2019-03-06T16:48:04.368Z,99.90
2019-03-06T16:50:36.131Z,99.90
2019-03-06T16:53:07.272Z,99.90
2019-03-06T16:55:42.856Z,99.90
2019-03-06T16:58:15.138Z,99.90
2019-03-06T17:00:45.909Z,99.90
2019-03-06T17:03:16.744Z,99.90
2019-03-06T17:05:49.107Z,99.90
2019-03-06T17:08:20.736Z,99.90
2019-03-06T17:10:52.556Z,99.90
2019-03-06T17:13:23.300Z,99.90
2019-03-06T17:15:54.778Z,99.90
2019-03-06T17:18:26.156Z,99.90
2019-03-06T17:20:56.911Z,99.90
2019-03-06T17:23:27.559Z,99.90
2019-03-06T17:25:58.600Z,99.90
2019-03-06T17:28:29.856Z,99.90
2019-03-06T17:31:01.229Z,99.90
2019-03-06T17:33:31.872Z,99.90
2019-03-06T17:36:02.366Z,99.90
2019-03-06T17:38:32.945Z,99.90
2019-03-06T17:41:03.824Z,99.90
2019-03-06T17:43:34.463Z,99.90
2019-03-06T17:46:05.934Z,99.90
2019-03-06T17:48:36.455Z,99.90
2019-03-06T17:51:07.025Z,99.90
2019-03-06T17:53:37.532Z,99.90
2019-03-06T17:56:08.143Z,99.90
2019-03-06T17:58:39.122Z,99.90
2019-03-06T18:01:17.071Z,99.90
2019-03-06T18:03:55.921Z,99.90
2019-03-06T18:06:26.780Z,99.90
2019-03-06T18:08:58.069Z,99.90
2019-03-06T18:11:28.854Z,99.90
2019-03-06T18:13:59.837Z,99.90
2019-03-06T18:16:30.566Z,99.90
2019-03-06T18:19:01.364Z,99.90
2019-03-06T18:21:31.992Z,99.90
2019-03-06T18:24:02.699Z,99.90
2019-03-06T18:26:33.585Z,99.90
2019-03-06T18:29:04.713Z,99.90
2019-03-06T18:31:36.620Z,99.90
2019-03-06T18:34:07.391Z,99.90
2019-03-06T18:36:38.246Z,99.90
2019-03-06T18:39:18.858Z,99.90
2019-03-06T18:41:49.518Z,99.90
2019-03-06T18:44:23.294Z,99.90
2019-03-06T18:46:54.620Z,99.90
2019-03-06T18:49:25.348Z,99.90
2019-03-06T18:51:55.731Z,99.90
2019-03-06T18:54:26.334Z,99.90
2019-03-06T18:56:56.923Z,99.90
2019-03-06T18:59:27.443Z,99.90
2019-03-06T19:01:58.785Z,99.90
2019-03-06T19:04:29.376Z,99.90
2019-03-06T19:07:00.412Z,99.90
2019-03-06T19:09:31.026Z,99.90
2019-03-06T19:12:01.731Z,99.90
2019-03-06T19:14:33.431Z,99.90
2019-03-06T19:17:05.094Z,99.90
2019-03-06T19:19:36.565Z,99.90
2019-03-06T19:22:07.684Z,99.90
2019-03-06T19:24:38.338Z,99.90
2019-03-06T19:27:08.748Z,99.90
2019-03-06T19:29:39.368Z,99.90
2019-03-06T19:32:10.126Z,99.90
2019-03-06T19:34:41.350Z,99.90
2019-03-06T19:37:12.031Z,99.90
2019-03-06T19:39:43.468Z,99.90
2019-03-06T19:42:13.987Z,99.90
2019-03-06T19:44:44.622Z,99.90
2019-03-06T19:47:14.990Z,99.90
2019-03-06T19:49:45.729Z,99.90
2019-03-06T19:52:16.512Z,99.90
2019-03-06T19:54:48.956Z,99.90
2019-03-06T19:57:19.986Z,99.90
2019-03-06T19:59:52.331Z,99.90
2019-03-06T20:02:23.212Z,99.90
2019-03-06T20:04:55.349Z,99.90
2019-03-06T20:07:27.266Z,99.90
2019-03-06T20:10:00.538Z,99.90
2019-03-06T20:12:32.154Z,99.90
2019-03-06T20:15:02.872Z,99.90
2019-03-06T20:17:35.013Z,99.90
2019-03-06T20:20:06.682Z,99.90
2019-03-06T20:22:38.341Z,99.90
2019-03-06T20:25:09.191Z,99.90
2019-03-06T20:27:41.120Z,99.90
2019-03-06T20:30:13.227Z,99.90
2019-03-06T20:32:47.297Z,99.90
2019-03-06T20:35:23.778Z,99.90
2019-03-06T20:37:56.418Z,99.90
2019-03-06T20:40:29.751Z,99.90
2019-03-06T20:43:03.031Z,99.90
2019-03-06T20:45:44.097Z,99.90
2019-03-06T20:48:18.772Z,99.90
2019-03-06T20:50:54.014Z,99.90
2019-03-06T20:53:26.720Z,99.90
2019-03-06T20:55:57.238Z,99.90
2019-03-06T20:58:32.451Z,99.90
2019-03-06T21:01:06.785Z,99.90
2019-03-06T21:03:39.940Z,99.90
2019-03-06T21:06:11.869Z,99.90
2019-03-06T21:08:43.881Z,99.90
2019-03-06T21:11:16.364Z,99.90
2019-03-06T21:13:48.546Z,99.90
2019-03-06T21:16:21.584Z,99.90
2019-03-06T21:18:52.775Z,99.90
2019-03-06T21:21:25.759Z,99.90
2019-03-06T21:23:58.357Z,99.90
2019-03-06T21:26:30.520Z,99.90
2019-03-06T21:29:06.865Z,99.90
2019-03-06T21:31:39.714Z,99.90
2019-03-06T21:34:29.309Z,99.90
2019-03-06T21:37:01.454Z,99.90
2019-03-06T21:39:36.326Z,99.90
2019-03-06T21:42:11.261Z,99.90
2019-03-06T21:44:46.957Z,99.90
2019-03-06T21:47:20.923Z,99.90
2019-03-06T21:50:05.399Z,99.90
2019-03-06T21:52:39.824Z,99.90
2019-03-06T21:55:16.429Z,99.90
2019-03-06T21:57:50.971Z,99.90
2019-03-06T22:00:27.125Z,99.90
2019-03-06T22:02:59.861Z,99.90
2019-03-06T22:05:32.713Z,99.90
2019-03-06T22:08:11.610Z,99.90
2019-03-06T22:10:44.995Z,99.90
2019-03-06T22:13:20.727Z,99.90
2019-03-06T22:15:56.422Z,99.90
2019-03-06T22:18:29.643Z,99.90
2019-03-06T22:21:04.387Z,99.90
2019-03-06T22:23:39.652Z,99.90
2019-03-06T22:26:16.805Z,99.90
2019-03-06T22:28:51.812Z,99.90
2019-03-06T22:31:31.068Z,99.90
2019-03-06T22:34:04.239Z,99.90
2019-03-06T22:36:39.743Z,99.90
2019-03-06T22:39:14.724Z,99.90
2019-03-06T22:41:51.449Z,99.90
2019-03-06T22:44:28.622Z,99.40
2019-03-06T22:47:02.062Z,98.70
2019-03-06T22:49:36.979Z,97.70
2019-03-06T22:52:13.723Z,97.20
2019-03-06T22:54:46.768Z,97.10
2019-03-06T22:57:19.715Z,96.90
2019-03-06T22:59:56.621Z,96.30
2019-03-06T23:02:30.451Z,96.20
2019-03-06T23:05:01.901Z,96.00
2019-03-06T23:07:35.383Z,95.80
2019-03-06T23:10:08.257Z,95.90
2019-03-06T23:12:41.799Z,95.80
2019-03-06T23:15:15.628Z,95.60
2019-03-06T23:17:48.430Z,95.40
2019-03-06T23:20:20.310Z,95.00
2019-03-06T23:22:54.245Z,94.50
2019-03-06T23:25:29.626Z,95.00
2019-03-06T23:28:02.357Z,94.70
2019-03-06T23:30:37.001Z,94.40
2019-03-06T23:33:10.506Z,94.00
2019-03-06T23:35:43.923Z,94.00
2019-03-06T23:38:17.031Z,94.20
2019-03-06T23:40:52.461Z,94.00
2019-03-06T23:43:24.613Z,94.00
2019-03-06T23:45:58.393Z,93.60
2019-03-06T23:48:32.442Z,93.70
2019-03-06T23:51:09.809Z,93.80
2019-03-06T23:53:52.045Z,93.70
2019-03-06T23:56:25.811Z,93.60
2019-03-06T23:59:02.802Z,93.80
